Terminal Aerodrome Forecast
Issued by NWS Jackson, MS

Home | Current Version | Previous Version | Text Only | Print | Product List | Glossary On
Versions: 1 2 3 4 5 6 7 8 9 10 11 12 13 14
964
FTUS44 KMEG 301130
TAFTUP
TAF
KTUP 301130Z 3012/0112 16006KT P6SM OVC100
     FM301600 18012G20KT P6SM VCTS SCT050CB BKN150
      TEMPO 3019/3023 3SM TSRA BKN025CB OVC050
     FM010500 20005KT 5SM BR OVC015=

USA.gov is the U.S. government's official web portal to all federal, state and local government web resources and services.